sensor_id;sensor_type;location;lat;lon;timestamp;temperature;humidity
17632;DHT22;8934;51.194;17.150;2023-02-11T00:00:31;-0.90;99.90
17632;DHT22;8934;51.194;17.150;2023-02-11T00:03:18;-0.80;99.90
17632;DHT22;8934;51.194;17.150;2023-02-11T00:06:06;-0.80;99.90
17632;DHT22;8934;51.194;17.150;2023-02-11T00:08:55;-0.70;99.90
17632;DHT22;8934;51.194;17.150;2023-02-11T00:11:43;-0.70;99.90
17632;DHT22;8934;51.194;17.150;2023-02-11T00:14:32;-0.60;99.90
17632;DHT22;8934;51.194;17.150;2023-02-11T00:17:20;-0.50;99.90
17632;DHT22;8934;51.194;17.150;2023-02-11T00:20:08;-0.40;99.90
17632;DHT22;8934;51.194;17.150;2023-02-11T00:22:56;-0.30;99.90
17632;DHT22;8934;51.194;17.150;2023-02-11T00:25:44;-0.20;99.90
17632;DHT22;8934;51.194;17.150;2023-02-11T00:28:32;-0.10;99.90
17632;DHT22;8934;51.194;17.150;2023-02-11T00:31:21;0.00;99.90
17632;DHT22;8934;51.194;17.150;2023-02-11T00:34:09;0.10;99.90
17632;DHT22;8934;51.194;17.150;2023-02-11T00:36:57;0.10;99.90
17632;DHT22;8934;51.194;17.150;2023-02-11T00:39:44;0.20;99.90
17632;DHT22;8934;51.194;17.150;2023-02-11T00:42:32;0.30;99.90
17632;DHT22;8934;51.194;17.150;2023-02-11T00:45:20;0.30;99.90
17632;DHT22;8934;51.194;17.150;2023-02-11T00:48:09;0.30;99.90
17632;DHT22;8934;51.194;17.150;2023-02-11T00:50:57;0.30;99.90
17632;DHT22;8934;51.194;17.150;2023-02-11T00:53:44;0.40;99.90
17632;DHT22;8934;51.194;17.150;2023-02-11T00:56:32;0.40;99.90
17632;DHT22;8934;51.194;17.150;2023-02-11T00:59:19;0.40;99.90
17632;DHT22;8934;51.194;17.150;2023-02-11T01:02:06;0.40;99.90
17632;DHT22;8934;51.194;17.150;2023-02-11T01:04:55;0.40;99.90
17632;DHT22;8934;51.194;17.150;2023-02-11T01:07:44;0.40;99.90
17632;DHT22;8934;51.194;17.150;2023-02-11T01:10:32;0.40;99.90
17632;DHT22;8934;51.194;17.150;2023-02-11T01:13:20;0.40;99.90
17632;DHT22;8934;51.194;17.150;2023-02-11T01:16:09;0.40;99.90
17632;DHT22;8934;51.194;17.150;2023-02-11T01:18:57;0.30;99.90
17632;DHT22;8934;51.194;17.150;2023-02-11T01:21:46;0.30;99.90
17632;DHT22;8934;51.194;17.150;2023-02-11T01:24:33;0.20;99.90
17632;DHT22;8934;51.194;17.150;2023-02-11T01:27:21;0.20;99.90
17632;DHT22;8934;51.194;17.150;2023-02-11T01:30:11;0.10;99.90
17632;DHT22;8934;51.194;17.150;2023-02-11T01:32:59;0.10;99.90
17632;DHT22;8934;51.194;17.150;2023-02-11T01:35:48;0.10;99.90
17632;DHT22;8934;51.194;17.150;2023-02-11T01:38:37;0.10;99.90
17632;DHT22;8934;51.194;17.150;2023-02-11T01:41:26;0.00;99.90
17632;DHT22;8934;51.194;17.150;2023-02-11T01:44:27;0.00;99.90
17632;DHT22;8934;51.194;17.150;2023-02-11T01:47:15;0.00;99.90
17632;DHT22;8934;51.194;17.150;2023-02-11T01:50:06;0.10;99.90
17632;DHT22;8934;51.194;17.150;2023-02-11T01:52:54;0.10;99.90
17632;DHT22;8934;51.194;17.150;2023-02-11T01:56:06;0.10;99.90
17632;DHT22;8934;51.194;17.150;2023-02-11T01:59:16;0.10;99.90
17632;DHT22;8934;51.194;17.150;2023-02-11T02:02:07;0.10;99.90
17632;DHT22;8934;51.194;17.150;2023-02-11T02:05:02;0.10;99.90
17632;DHT22;8934;51.194;17.150;2023-02-11T02:07:58;0.10;99.90
17632;DHT22;8934;51.194;17.150;2023-02-11T02:10:49;0.10;99.90
17632;DHT22;8934;51.194;17.150;2023-02-11T02:13:41;0.10;99.90
17632;DHT22;8934;51.194;17.150;2023-02-11T02:16:31;0.10;99.90
17632;DHT22;8934;51.194;17.150;2023-02-11T02:23:24;0.10;99.90
17632;DHT22;8934;51.194;17.150;2023-02-11T02:26:42;0.10;99.90
17632;DHT22;8934;51.194;17.150;2023-02-11T02:30:00;0.10;99.90
17632;DHT22;8934;51.194;17.150;2023-02-11T02:36:14;0.10;99.90
17632;DHT22;8934;51.194;17.150;2023-02-11T02:39:08;0.20;99.90
17632;DHT22;8934;51.194;17.150;2023-02-11T02:41:56;0.20;99.90
17632;DHT22;8934;51.194;17.150;2023-02-11T02:44:47;0.20;99.90
17632;DHT22;8934;51.194;17.150;2023-02-11T02:47:35;0.30;99.90
17632;DHT22;8934;51.194;17.150;2023-02-11T02:50:28;0.40;99.90
17632;DHT22;8934;51.194;17.150;2023-02-11T02:53:23;0.50;99.90
17632;DHT22;8934;51.194;17.150;2023-02-11T02:56:19;0.60;99.90
17632;DHT22;8934;51.194;17.150;2023-02-11T02:59:21;0.70;99.90
17632;DHT22;8934;51.194;17.150;2023-02-11T03:02:15;0.90;99.90
17632;DHT22;8934;51.194;17.150;2023-02-11T03:05:09;1.00;99.90
17632;DHT22;8934;51.194;17.150;2023-02-11T03:08:04;1.20;99.90
17632;DHT22;8934;51.194;17.150;2023-02-11T03:10:54;1.20;99.90
17632;DHT22;8934;51.194;17.150;2023-02-11T03:13:43;1.30;99.90
17632;DHT22;8934;51.194;17.150;2023-02-11T03:16:33;1.50;99.90
17632;DHT22;8934;51.194;17.150;2023-02-11T03:19:27;1.50;99.90
17632;DHT22;8934;51.194;17.150;2023-02-11T03:22:18;1.60;99.90
17632;DHT22;8934;51.194;17.150;2023-02-11T03:25:09;1.60;99.90
17632;DHT22;8934;51.194;17.150;2023-02-11T03:28:04;1.70;99.90
17632;DHT22;8934;51.194;17.150;2023-02-11T03:30:57;1.70;99.90
17632;DHT22;8934;51.194;17.150;2023-02-11T03:34:05;1.80;99.90
17632;DHT22;8934;51.194;17.150;2023-02-11T03:36:58;1.80;99.90
17632;DHT22;8934;51.194;17.150;2023-02-11T03:39:51;1.80;99.90
17632;DHT22;8934;51.194;17.150;2023-02-11T03:42:43;1.90;99.90
17632;DHT22;8934;51.194;17.150;2023-02-11T03:45:32;1.80;99.90
17632;DHT22;8934;51.194;17.150;2023-02-11T03:48:25;1.80;99.90
17632;DHT22;8934;51.194;17.150;2023-02-11T03:51:15;1.80;99.90
17632;DHT22;8934;51.194;17.150;2023-02-11T03:54:06;1.90;99.90
17632;DHT22;8934;51.194;17.150;2023-02-11T03:56:57;1.80;99.90
17632;DHT22;8934;51.194;17.150;2023-02-11T03:59:51;1.80;99.90
17632;DHT22;8934;51.194;17.150;2023-02-11T04:02:40;1.80;99.90
17632;DHT22;8934;51.194;17.150;2023-02-11T04:05:28;1.80;99.90
17632;DHT22;8934;51.194;17.150;2023-02-11T04:08:16;1.80;99.90
17632;DHT22;8934;51.194;17.150;2023-02-11T04:11:03;1.80;99.90
17632;DHT22;8934;51.194;17.150;2023-02-11T04:13:51;1.70;99.90
17632;DHT22;8934;51.194;17.150;2023-02-11T04:16:40;1.80;99.90
17632;DHT22;8934;51.194;17.150;2023-02-11T04:19:27;1.80;99.90
17632;DHT22;8934;51.194;17.150;2023-02-11T04:22:15;1.80;99.90
17632;DHT22;8934;51.194;17.150;2023-02-11T04:25:02;1.90;99.90
17632;DHT22;8934;51.194;17.150;2023-02-11T04:27:50;1.80;99.90
17632;DHT22;8934;51.194;17.150;2023-02-11T04:30:37;1.80;99.90
17632;DHT22;8934;51.194;17.150;2023-02-11T04:33:26;1.80;99.90
17632;DHT22;8934;51.194;17.150;2023-02-11T04:36:14;1.80;99.90
17632;DHT22;8934;51.194;17.150;2023-02-11T04:39:02;1.80;99.90
17632;DHT22;8934;51.194;17.150;2023-02-11T04:41:50;1.80;99.90
17632;DHT22;8934;51.194;17.150;2023-02-11T04:44:37;1.80;99.90
17632;DHT22;8934;51.194;17.150;2023-02-11T04:47:25;1.90;99.90
17632;DHT22;8934;51.194;17.150;2023-02-11T04:50:14;1.90;99.90
17632;DHT22;8934;51.194;17.150;2023-02-11T04:53:02;2.00;99.90
17632;DHT22;8934;51.194;17.150;2023-02-11T04:55:49;1.90;99.90
17632;DHT22;8934;51.194;17.150;2023-02-11T04:58:37;1.90;99.90
17632;DHT22;8934;51.194;17.150;2023-02-11T05:01:25;1.90;99.90
17632;DHT22;8934;51.194;17.150;2023-02-11T05:04:12;1.90;99.90
17632;DHT22;8934;51.194;17.150;2023-02-11T05:07:02;1.90;99.90
17632;DHT22;8934;51.194;17.150;2023-02-11T05:09:49;1.90;99.90
17632;DHT22;8934;51.194;17.150;2023-02-11T05:12:37;1.90;99.90
17632;DHT22;8934;51.194;17.150;2023-02-11T05:15:24;1.90;99.90
17632;DHT22;8934;51.194;17.150;2023-02-11T05:18:12;1.90;99.90
17632;DHT22;8934;51.194;17.150;2023-02-11T05:21:05;2.00;99.90
17632;DHT22;8934;51.194;17.150;2023-02-11T05:23:54;2.00;99.90
17632;DHT22;8934;51.194;17.150;2023-02-11T05:26:42;2.00;99.90
17632;DHT22;8934;51.194;17.150;2023-02-11T05:29:29;2.00;99.90
17632;DHT22;8934;51.194;17.150;2023-02-11T05:32:18;2.00;99.90
17632;DHT22;8934;51.194;17.150;2023-02-11T05:35:06;2.10;99.90
17632;DHT22;8934;51.194;17.150;2023-02-11T05:37:54;2.10;99.90
17632;DHT22;8934;51.194;17.150;2023-02-11T05:40:43;2.20;99.90
17632;DHT22;8934;51.194;17.150;2023-02-11T05:43:30;2.20;99.90
17632;DHT22;8934;51.194;17.150;2023-02-11T05:46:20;2.20;99.90
17632;DHT22;8934;51.194;17.150;2023-02-11T05:49:08;2.20;99.90
17632;DHT22;8934;51.194;17.150;2023-02-11T05:51:56;2.20;99.90
17632;DHT22;8934;51.194;17.150;2023-02-11T05:54:43;2.20;99.90
17632;DHT22;8934;51.194;17.150;2023-02-11T05:57:32;2.10;99.90
17632;DHT22;8934;51.194;17.150;2023-02-11T06:00:19;2.10;99.90
17632;DHT22;8934;51.194;17.150;2023-02-11T06:03:07;2.20;99.90
17632;DHT22;8934;51.194;17.150;2023-02-11T06:05:55;2.10;99.90
17632;DHT22;8934;51.194;17.150;2023-02-11T06:08:42;2.20;99.90
17632;DHT22;8934;51.194;17.150;2023-02-11T06:11:30;2.20;99.90
17632;DHT22;8934;51.194;17.150;2023-02-11T06:14:19;2.20;99.90
17632;DHT22;8934;51.194;17.150;2023-02-11T06:17:06;2.20;99.90
17632;DHT22;8934;51.194;17.150;2023-02-11T06:19:54;2.20;99.90
17632;DHT22;8934;51.194;17.150;2023-02-11T06:22:42;2.20;99.90
17632;DHT22;8934;51.194;17.150;2023-02-11T06:25:29;2.30;99.90
17632;DHT22;8934;51.194;17.150;2023-02-11T06:28:17;2.30;99.90
17632;DHT22;8934;51.194;17.150;2023-02-11T06:31:07;2.40;99.90
17632;DHT22;8934;51.194;17.150;2023-02-11T06:33:55;2.40;99.90
17632;DHT22;8934;51.194;17.150;2023-02-11T06:36:43;2.40;99.90
17632;DHT22;8934;51.194;17.150;2023-02-11T06:39:31;2.50;99.90
17632;DHT22;8934;51.194;17.150;2023-02-11T06:42:19;2.50;99.90
17632;DHT22;8934;51.194;17.150;2023-02-11T06:45:07;2.50;99.90
17632;DHT22;8934;51.194;17.150;2023-02-11T06:47:57;2.50;99.90
17632;DHT22;8934;51.194;17.150;2023-02-11T06:50:45;2.50;99.90
17632;DHT22;8934;51.194;17.150;2023-02-11T06:53:35;2.60;99.90
17632;DHT22;8934;51.194;17.150;2023-02-11T06:56:23;2.60;99.90
17632;DHT22;8934;51.194;17.150;2023-02-11T06:59:15;2.60;99.90
17632;DHT22;8934;51.194;17.150;2023-02-11T07:02:03;2.60;99.90
17632;DHT22;8934;51.194;17.150;2023-02-11T07:04:52;2.70;99.90
17632;DHT22;8934;51.194;17.150;2023-02-11T07:07:39;2.70;99.90
17632;DHT22;8934;51.194;17.150;2023-02-11T07:10:27;2.80;99.90
17632;DHT22;8934;51.194;17.150;2023-02-11T07:13:14;2.80;99.90
17632;DHT22;8934;51.194;17.150;2023-02-11T07:16:04;2.80;99.90
17632;DHT22;8934;51.194;17.150;2023-02-11T07:18:52;2.80;99.90
17632;DHT22;8934;51.194;17.150;2023-02-11T07:21:41;2.90;99.90
17632;DHT22;8934;51.194;17.150;2023-02-11T07:24:29;2.90;99.90
17632;DHT22;8934;51.194;17.150;2023-02-11T07:27:16;2.90;99.90
17632;DHT22;8934;51.194;17.150;2023-02-11T07:30:04;2.90;99.90
17632;DHT22;8934;51.194;17.150;2023-02-11T07:32:52;2.90;99.90
17632;DHT22;8934;51.194;17.150;2023-02-11T07:35:40;2.90;99.90
17632;DHT22;8934;51.194;17.150;2023-02-11T07:38:30;3.00;99.90
17632;DHT22;8934;51.194;17.150;2023-02-11T07:41:19;3.00;99.90
17632;DHT22;8934;51.194;17.150;2023-02-11T07:44:08;3.00;99.90
17632;DHT22;8934;51.194;17.150;2023-02-11T07:46:55;3.00;99.90
17632;DHT22;8934;51.194;17.150;2023-02-11T07:49:43;3.00;99.90
17632;DHT22;8934;51.194;17.150;2023-02-11T07:52:31;3.10;99.90
17632;DHT22;8934;51.194;17.150;2023-02-11T07:55:20;3.10;99.90
17632;DHT22;8934;51.194;17.150;2023-02-11T07:58:08;3.10;99.90
17632;DHT22;8934;51.194;17.150;2023-02-11T08:01:00;3.20;99.90
17632;DHT22;8934;51.194;17.150;2023-02-11T08:03:48;3.30;99.90
17632;DHT22;8934;51.194;17.150;2023-02-11T08:06:39;3.30;99.90
17632;DHT22;8934;51.194;17.150;2023-02-11T08:09:27;3.40;99.90
17632;DHT22;8934;51.194;17.150;2023-02-11T08:12:19;3.50;99.90
17632;DHT22;8934;51.194;17.150;2023-02-11T08:15:07;3.60;99.90
17632;DHT22;8934;51.194;17.150;2023-02-11T08:17:55;3.70;99.90
17632;DHT22;8934;51.194;17.150;2023-02-11T08:20:42;3.90;99.90
17632;DHT22;8934;51.194;17.150;2023-02-11T08:23:30;3.90;99.90
17632;DHT22;8934;51.194;17.150;2023-02-11T08:26:18;4.00;99.90
17632;DHT22;8934;51.194;17.150;2023-02-11T08:29:10;4.10;99.90
17632;DHT22;8934;51.194;17.150;2023-02-11T08:31:58;4.20;99.90
17632;DHT22;8934;51.194;17.150;2023-02-11T08:34:49;4.20;99.90
17632;DHT22;8934;51.194;17.150;2023-02-11T08:37:37;4.30;99.90
17632;DHT22;8934;51.194;17.150;2023-02-11T08:40:25;4.40;99.90
17632;DHT22;8934;51.194;17.150;2023-02-11T08:43:13;4.40;99.90
17632;DHT22;8934;51.194;17.150;2023-02-11T08:46:02;4.40;99.90
17632;DHT22;8934;51.194;17.150;2023-02-11T08:48:50;4.60;99.90
17632;DHT22;8934;51.194;17.150;2023-02-11T08:51:38;4.60;99.90
17632;DHT22;8934;51.194;17.150;2023-02-11T08:54:25;4.60;99.90
17632;DHT22;8934;51.194;17.150;2023-02-11T08:57:12;4.60;99.90
17632;DHT22;8934;51.194;17.150;2023-02-11T09:00:00;4.60;99.90
17632;DHT22;8934;51.194;17.150;2023-02-11T09:02:49;4.70;99.90
17632;DHT22;8934;51.194;17.150;2023-02-11T09:05:40;4.70;99.90
17632;DHT22;8934;51.194;17.150;2023-02-11T09:08:28;4.70;99.90
17632;DHT22;8934;51.194;17.150;2023-02-11T09:11:16;4.80;99.90
17632;DHT22;8934;51.194;17.150;2023-02-11T09:14:04;4.80;99.90
17632;DHT22;8934;51.194;17.150;2023-02-11T09:16:52;4.80;99.90
17632;DHT22;8934;51.194;17.150;2023-02-11T09:19:41;4.80;99.90
17632;DHT22;8934;51.194;17.150;2023-02-11T09:22:28;4.80;99.90
17632;DHT22;8934;51.194;17.150;2023-02-11T09:25:16;4.90;99.90
17632;DHT22;8934;51.194;17.150;2023-02-11T09:28:03;4.90;99.90
17632;DHT22;8934;51.194;17.150;2023-02-11T09:30:51;5.00;99.90
17632;DHT22;8934;51.194;17.150;2023-02-11T09:33:41;5.10;99.90
17632;DHT22;8934;51.194;17.150;2023-02-11T09:36:36;5.00;99.90
17632;DHT22;8934;51.194;17.150;2023-02-11T09:39:24;5.10;99.90
17632;DHT22;8934;51.194;17.150;2023-02-11T09:42:32;5.10;99.90
17632;DHT22;8934;51.194;17.150;2023-02-11T09:45:26;5.20;99.90
17632;DHT22;8934;51.194;17.150;2023-02-11T09:48:16;5.20;99.90
17632;DHT22;8934;51.194;17.150;2023-02-11T09:51:05;5.20;99.90
17632;DHT22;8934;51.194;17.150;2023-02-11T09:54:06;5.30;99.90
17632;DHT22;8934;51.194;17.150;2023-02-11T09:56:58;5.40;99.90
17632;DHT22;8934;51.194;17.150;2023-02-11T09:59:46;5.40;99.90
17632;DHT22;8934;51.194;17.150;2023-02-11T10:02:41;5.40;99.90
17632;DHT22;8934;51.194;17.150;2023-02-11T10:05:47;5.40;99.90
17632;DHT22;8934;51.194;17.150;2023-02-11T10:08:42;5.40;99.90
17632;DHT22;8934;51.194;17.150;2023-02-11T10:11:37;5.40;99.90
17632;DHT22;8934;51.194;17.150;2023-02-11T10:14:49;5.50;99.90
17632;DHT22;8934;51.194;17.150;2023-02-11T10:17:49;5.50;99.90
17632;DHT22;8934;51.194;17.150;2023-02-11T10:20:42;5.50;99.90
17632;DHT22;8934;51.194;17.150;2023-02-11T10:23:34;5.50;99.90
17632;DHT22;8934;51.194;17.150;2023-02-11T10:26:25;5.60;99.90
17632;DHT22;8934;51.194;17.150;2023-02-11T10:29:25;5.70;99.90
17632;DHT22;8934;51.194;17.150;2023-02-11T10:32:26;5.80;99.90
17632;DHT22;8934;51.194;17.150;2023-02-11T10:35:18;5.90;99.90
17632;DHT22;8934;51.194;17.150;2023-02-11T10:38:07;6.00;99.90
17632;DHT22;8934;51.194;17.150;2023-02-11T10:40:55;6.00;99.90
17632;DHT22;8934;51.194;17.150;2023-02-11T10:43:43;6.00;99.90
17632;DHT22;8934;51.194;17.150;2023-02-11T10:46:35;6.00;99.90
17632;DHT22;8934;51.194;17.150;2023-02-11T10:49:37;6.00;99.90
17632;DHT22;8934;51.194;17.150;2023-02-11T10:52:26;6.00;99.90
17632;DHT22;8934;51.194;17.150;2023-02-11T10:55:16;5.90;99.90
17632;DHT22;8934;51.194;17.150;2023-02-11T10:58:06;6.00;99.90
17632;DHT22;8934;51.194;17.150;2023-02-11T11:00:55;6.10;99.90
17632;DHT22;8934;51.194;17.150;2023-02-11T11:03:49;6.10;99.90
17632;DHT22;8934;51.194;17.150;2023-02-11T11:06:36;6.10;99.90
17632;DHT22;8934;51.194;17.150;2023-02-11T11:09:27;6.00;99.90
17632;DHT22;8934;51.194;17.150;2023-02-11T11:12:30;6.00;99.90
17632;DHT22;8934;51.194;17.150;2023-02-11T11:15:21;5.90;99.90
17632;DHT22;8934;51.194;17.150;2023-02-11T11:18:13;5.90;99.90
17632;DHT22;8934;51.194;17.150;2023-02-11T11:21:13;5.90;99.90
17632;DHT22;8934;51.194;17.150;2023-02-11T11:24:02;5.90;99.90
17632;DHT22;8934;51.194;17.150;2023-02-11T11:26:52;6.00;99.90
17632;DHT22;8934;51.194;17.150;2023-02-11T11:29:45;6.00;99.90
17632;DHT22;8934;51.194;17.150;2023-02-11T11:32:34;6.10;99.90
17632;DHT22;8934;51.194;17.150;2023-02-11T11:35:26;6.10;99.90
17632;DHT22;8934;51.194;17.150;2023-02-11T11:38:15;6.20;99.90
17632;DHT22;8934;51.194;17.150;2023-02-11T11:41:23;6.30;99.90
17632;DHT22;8934;51.194;17.150;2023-02-11T11:44:22;6.40;99.90
17632;DHT22;8934;51.194;17.150;2023-02-11T11:47:23;6.40;99.90
17632;DHT22;8934;51.194;17.150;2023-02-11T11:50:19;6.30;99.90
17632;DHT22;8934;51.194;17.150;2023-02-11T11:53:17;6.20;99.90
17632;DHT22;8934;51.194;17.150;2023-02-11T11:56:12;6.20;99.90
17632;DHT22;8934;51.194;17.150;2023-02-11T11:59:08;6.20;99.90
17632;DHT22;8934;51.194;17.150;2023-02-11T12:02:09;6.20;99.90
17632;DHT22;8934;51.194;17.150;2023-02-11T12:05:01;6.20;99.90
17632;DHT22;8934;51.194;17.150;2023-02-11T12:08:06;6.20;99.90
17632;DHT22;8934;51.194;17.150;2023-02-11T12:11:04;6.20;99.90
17632;DHT22;8934;51.194;17.150;2023-02-11T12:14:05;6.20;99.90
17632;DHT22;8934;51.194;17.150;2023-02-11T12:17:02;6.20;99.90
17632;DHT22;8934;51.194;17.150;2023-02-11T12:19:58;6.20;99.90
17632;DHT22;8934;51.194;17.150;2023-02-11T12:22:57;6.20;99.90
17632;DHT22;8934;51.194;17.150;2023-02-11T12:25:54;6.20;99.90
17632;DHT22;8934;51.194;17.150;2023-02-11T12:28:55;6.20;99.90
17632;DHT22;8934;51.194;17.150;2023-02-11T12:31:55;6.30;99.90
17632;DHT22;8934;51.194;17.150;2023-02-11T12:38:28;6.30;99.90
17632;DHT22;8934;51.194;17.150;2023-02-11T12:41:31;6.20;99.90
17632;DHT22;8934;51.194;17.150;2023-02-11T12:44:56;6.30;99.90
17632;DHT22;8934;51.194;17.150;2023-02-11T12:47:54;6.30;99.90
17632;DHT22;8934;51.194;17.150;2023-02-11T12:50:53;6.30;99.90
17632;DHT22;8934;51.194;17.150;2023-02-11T12:57:00;6.30;99.90
17632;DHT22;8934;51.194;17.150;2023-02-11T12:59:55;6.40;99.90
17632;DHT22;8934;51.194;17.150;2023-02-11T13:02:49;6.40;99.90
17632;DHT22;8934;51.194;17.150;2023-02-11T13:05:43;6.40;99.90
17632;DHT22;8934;51.194;17.150;2023-02-11T13:08:34;6.40;99.90
17632;DHT22;8934;51.194;17.150;2023-02-11T13:11:25;6.40;99.90
17632;DHT22;8934;51.194;17.150;2023-02-11T13:14:20;6.40;99.90
17632;DHT22;8934;51.194;17.150;2023-02-11T13:17:16;6.40;99.90
17632;DHT22;8934;51.194;17.150;2023-02-11T13:20:17;6.40;99.90
17632;DHT22;8934;51.194;17.150;2023-02-11T13:23:15;6.30;99.90
17632;DHT22;8934;51.194;17.150;2023-02-11T13:26:09;6.30;99.90
17632;DHT22;8934;51.194;17.150;2023-02-11T13:29:09;6.40;99.90
17632;DHT22;8934;51.194;17.150;2023-02-11T13:32:09;6.40;99.90
17632;DHT22;8934;51.194;17.150;2023-02-11T13:34:58;6.40;99.90
17632;DHT22;8934;51.194;17.150;2023-02-11T13:37:46;6.40;99.90
17632;DHT22;8934;51.194;17.150;2023-02-11T13:40:35;6.40;99.90
17632;DHT22;8934;51.194;17.150;2023-02-11T13:43:25;6.30;99.90
17632;DHT22;8934;51.194;17.150;2023-02-11T13:46:14;6.30;99.90
17632;DHT22;8934;51.194;17.150;2023-02-11T13:49:02;6.30;99.90
17632;DHT22;8934;51.194;17.150;2023-02-11T13:51:51;6.20;99.90
17632;DHT22;8934;51.194;17.150;2023-02-11T13:54:39;6.20;99.90
17632;DHT22;8934;51.194;17.150;2023-02-11T13:57:36;6.20;99.90
17632;DHT22;8934;51.194;17.150;2023-02-11T14:00:48;6.20;99.90
17632;DHT22;8934;51.194;17.150;2023-02-11T14:03:37;6.20;99.90
17632;DHT22;8934;51.194;17.150;2023-02-11T14:07:25;6.30;99.90
17632;DHT22;8934;51.194;17.150;2023-02-11T14:10:48;6.20;99.90
17632;DHT22;8934;51.194;17.150;2023-02-11T14:14:13;6.20;99.90
17632;DHT22;8934;51.194;17.150;2023-02-11T14:17:29;6.20;99.90
17632;DHT22;8934;51.194;17.150;2023-02-11T14:20:34;6.10;99.90
17632;DHT22;8934;51.194;17.150;2023-02-11T14:23:25;6.10;99.90
17632;DHT22;8934;51.194;17.150;2023-02-11T14:26:27;6.10;99.90
17632;DHT22;8934;51.194;17.150;2023-02-11T14:29:23;6.10;99.90
17632;DHT22;8934;51.194;17.150;2023-02-11T14:32:26;6.10;99.90
17632;DHT22;8934;51.194;17.150;2023-02-11T14:35:24;6.10;99.90
17632;DHT22;8934;51.194;17.150;2023-02-11T14:38:19;6.00;99.90
17632;DHT22;8934;51.194;17.150;2023-02-11T14:41:18;6.00;99.90
17632;DHT22;8934;51.194;17.150;2023-02-11T14:44:12;6.00;99.90
17632;DHT22;8934;51.194;17.150;2023-02-11T14:47:00;6.00;99.90
17632;DHT22;8934;51.194;17.150;2023-02-11T14:49:49;5.90;99.90
17632;DHT22;8934;51.194;17.150;2023-02-11T14:52:37;5.80;99.90
17632;DHT22;8934;51.194;17.150;2023-02-11T14:55:30;5.80;99.90
17632;DHT22;8934;51.194;17.150;2023-02-11T14:58:22;5.70;99.90
17632;DHT22;8934;51.194;17.150;2023-02-11T15:01:24;5.70;99.90
17632;DHT22;8934;51.194;17.150;2023-02-11T15:04:23;5.60;99.90
17632;DHT22;8934;51.194;17.150;2023-02-11T15:07:12;5.60;99.90
17632;DHT22;8934;51.194;17.150;2023-02-11T15:10:01;5.60;99.90
17632;DHT22;8934;51.194;17.150;2023-02-11T15:12:49;5.50;99.90
17632;DHT22;8934;51.194;17.150;2023-02-11T15:15:38;5.50;99.90
17632;DHT22;8934;51.194;17.150;2023-02-11T15:18:32;5.50;99.90
17632;DHT22;8934;51.194;17.150;2023-02-11T15:21:22;5.40;99.90
17632;DHT22;8934;51.194;17.150;2023-02-11T15:24:21;5.40;99.90
17632;DHT22;8934;51.194;17.150;2023-02-11T15:27:12;5.40;99.90
17632;DHT22;8934;51.194;17.150;2023-02-11T15:30:01;5.40;99.90
17632;DHT22;8934;51.194;17.150;2023-02-11T15:32:51;5.30;99.90
17632;DHT22;8934;51.194;17.150;2023-02-11T15:35:43;5.30;99.90
17632;DHT22;8934;51.194;17.150;2023-02-11T15:38:31;5.30;99.90
17632;DHT22;8934;51.194;17.150;2023-02-11T15:41:34;5.30;99.90
17632;DHT22;8934;51.194;17.150;2023-02-11T15:44:29;5.30;99.90
17632;DHT22;8934;51.194;17.150;2023-02-11T15:47:19;5.30;99.90
17632;DHT22;8934;51.194;17.150;2023-02-11T15:50:19;5.30;99.90
17632;DHT22;8934;51.194;17.150;2023-02-11T15:53:24;5.30;99.90
17632;DHT22;8934;51.194;17.150;2023-02-11T15:56:16;5.30;99.90
17632;DHT22;8934;51.194;17.150;2023-02-11T15:59:09;5.20;99.90
17632;DHT22;8934;51.194;17.150;2023-02-11T16:02:05;5.30;99.90
17632;DHT22;8934;51.194;17.150;2023-02-11T16:04:55;5.30;99.90
17632;DHT22;8934;51.194;17.150;2023-02-11T16:07:46;5.30;99.90
17632;DHT22;8934;51.194;17.150;2023-02-11T16:10:35;5.30;99.90
17632;DHT22;8934;51.194;17.150;2023-02-11T16:13:22;5.20;99.90
17632;DHT22;8934;51.194;17.150;2023-02-11T16:16:17;5.20;99.90
17632;DHT22;8934;51.194;17.150;2023-02-11T16:19:13;5.20;99.90
17632;DHT22;8934;51.194;17.150;2023-02-11T16:22:08;5.20;99.90
17632;DHT22;8934;51.194;17.150;2023-02-11T16:24:58;5.20;99.90
17632;DHT22;8934;51.194;17.150;2023-02-11T16:27:49;5.10;99.90
17632;DHT22;8934;51.194;17.150;2023-02-11T16:30:38;5.10;99.90
17632;DHT22;8934;51.194;17.150;2023-02-11T16:33:26;5.20;99.90
17632;DHT22;8934;51.194;17.150;2023-02-11T16:36:14;5.20;99.90
17632;DHT22;8934;51.194;17.150;2023-02-11T16:39:03;5.20;99.90
17632;DHT22;8934;51.194;17.150;2023-02-11T16:41:52;5.20;99.90
17632;DHT22;8934;51.194;17.150;2023-02-11T16:44:41;5.20;99.90
17632;DHT22;8934;51.194;17.150;2023-02-11T16:47:28;5.20;99.90
17632;DHT22;8934;51.194;17.150;2023-02-11T16:50:20;5.20;99.90
17632;DHT22;8934;51.194;17.150;2023-02-11T16:53:08;5.20;99.90
17632;DHT22;8934;51.194;17.150;2023-02-11T16:55:56;5.20;99.90
17632;DHT22;8934;51.194;17.150;2023-02-11T16:58:45;5.20;99.90
17632;DHT22;8934;51.194;17.150;2023-02-11T17:01:34;5.20;99.90
17632;DHT22;8934;51.194;17.150;2023-02-11T17:04:24;5.20;99.90
17632;DHT22;8934;51.194;17.150;2023-02-11T17:07:13;5.20;99.90
17632;DHT22;8934;51.194;17.150;2023-02-11T17:10:01;5.20;99.90
17632;DHT22;8934;51.194;17.150;2023-02-11T17:12:49;5.30;99.90
17632;DHT22;8934;51.194;17.150;2023-02-11T17:15:39;5.20;99.90
17632;DHT22;8934;51.194;17.150;2023-02-11T17:18:26;5.20;99.90
17632;DHT22;8934;51.194;17.150;2023-02-11T17:21:15;5.30;99.90
17632;DHT22;8934;51.194;17.150;2023-02-11T17:24:02;5.30;99.90
17632;DHT22;8934;51.194;17.150;2023-02-11T17:26:50;5.40;99.90
17632;DHT22;8934;51.194;17.150;2023-02-11T17:29:38;5.30;99.90
17632;DHT22;8934;51.194;17.150;2023-02-11T17:32:27;5.30;99.90
17632;DHT22;8934;51.194;17.150;2023-02-11T17:35:15;5.30;99.90
17632;DHT22;8934;51.194;17.150;2023-02-11T17:38:03;5.20;99.90
17632;DHT22;8934;51.194;17.150;2023-02-11T17:40:56;5.20;99.90
17632;DHT22;8934;51.194;17.150;2023-02-11T17:43:43;5.20;99.90
17632;DHT22;8934;51.194;17.150;2023-02-11T17:46:33;5.30;99.90
17632;DHT22;8934;51.194;17.150;2023-02-11T17:49:22;5.30;99.90
17632;DHT22;8934;51.194;17.150;2023-02-11T17:52:10;5.20;99.90
17632;DHT22;8934;51.194;17.150;2023-02-11T17:54:57;5.30;99.90
17632;DHT22;8934;51.194;17.150;2023-02-11T17:57:45;5.30;99.90
17632;DHT22;8934;51.194;17.150;2023-02-11T18:00:32;5.30;99.90
17632;DHT22;8934;51.194;17.150;2023-02-11T18:03:20;5.30;99.90
17632;DHT22;8934;51.194;17.150;2023-02-11T18:06:10;5.30;99.90
17632;DHT22;8934;51.194;17.150;2023-02-11T18:08:58;5.30;99.90
17632;DHT22;8934;51.194;17.150;2023-02-11T18:11:47;5.30;99.90
17632;DHT22;8934;51.194;17.150;2023-02-11T18:14:39;5.30;99.90
17632;DHT22;8934;51.194;17.150;2023-02-11T18:17:26;5.30;99.90
17632;DHT22;8934;51.194;17.150;2023-02-11T18:20:14;5.30;99.90
17632;DHT22;8934;51.194;17.150;2023-02-11T18:23:03;5.30;99.90
17632;DHT22;8934;51.194;17.150;2023-02-11T18:25:50;5.30;99.90
17632;DHT22;8934;51.194;17.150;2023-02-11T18:28:39;5.30;99.90
17632;DHT22;8934;51.194;17.150;2023-02-11T18:31:31;5.30;99.90
17632;DHT22;8934;51.194;17.150;2023-02-11T18:34:20;5.30;99.90